sensor_id;sensor_type;location;lat;lon;timestamp;P1;durP1;ratioP1;P2;durP2;ratioP2
25990;SDS011;13779;-33.886;151.198;2022-07-29T00:01:54;2.87;;;1.20;;
25990;SDS011;13779;-33.886;151.198;2022-07-29T00:04:25;2.20;;;1.03;;
25990;SDS011;13779;-33.886;151.198;2022-07-29T00:06:55;4.53;;;1.27;;
25990;SDS011;13779;-33.886;151.198;2022-07-29T00:09:26;5.22;;;1.00;;
25990;SDS011;13779;-33.886;151.198;2022-07-29T00:11:58;4.90;;;1.52;;
25990;SDS011;13779;-33.886;151.198;2022-07-29T00:14:30;3.80;;;1.00;;
25990;SDS011;13779;-33.886;151.198;2022-07-29T00:17:00;5.22;;;1.40;;
25990;SDS011;13779;-33.886;151.198;2022-07-29T00:19:30;5.07;;;1.00;;
25990;SDS011;13779;-33.886;151.198;2022-07-29T00:22:02;4.45;;;1.45;;
25990;SDS011;13779;-33.886;151.198;2022-07-29T00:24:33;2.25;;;0.90;;
25990;SDS011;13779;-33.886;151.198;2022-07-29T00:27:17;7.95;;;1.20;;
25990;SDS011;13779;-33.886;151.198;2022-07-29T00:29:47;9.13;;;1.10;;
25990;SDS011;13779;-33.886;151.198;2022-07-29T00:32:18;3.05;;;1.05;;
25990;SDS011;13779;-33.886;151.198;2022-07-29T00:34:48;2.42;;;0.90;;
25990;SDS011;13779;-33.886;151.198;2022-07-29T00:37:36;3.92;;;1.17;;
25990;SDS011;13779;-33.886;151.198;2022-07-29T00:40:07;2.33;;;1.30;;
25990;SDS011;13779;-33.886;151.198;2022-07-29T00:42:45;2.88;;;1.13;;
25990;SDS011;13779;-33.886;151.198;2022-07-29T00:45:17;0.98;;;0.60;;
25990;SDS011;13779;-33.886;151.198;2022-07-29T00:47:48;3.38;;;1.20;;
25990;SDS011;13779;-33.886;151.198;2022-07-29T00:50:18;3.20;;;1.73;;
25990;SDS011;13779;-33.886;151.198;2022-07-29T00:52:49;3.85;;;1.40;;
25990;SDS011;13779;-33.886;151.198;2022-07-29T00:55:25;2.72;;;1.30;;
25990;SDS011;13779;-33.886;151.198;2022-07-29T00:57:56;3.33;;;1.10;;
25990;SDS011;13779;-33.886;151.198;2022-07-29T01:00:27;5.78;;;1.40;;
25990;SDS011;13779;-33.886;151.198;2022-07-29T01:02:59;2.72;;;1.30;;
25990;SDS011;13779;-33.886;151.198;2022-07-29T01:05:30;2.10;;;1.33;;
25990;SDS011;13779;-33.886;151.198;2022-07-29T01:08:15;3.60;;;1.13;;
25990;SDS011;13779;-33.886;151.198;2022-07-29T01:10:46;2.13;;;1.33;;
25990;SDS011;13779;-33.886;151.198;2022-07-29T01:15:50;2.05;;;0.95;;
25990;SDS011;13779;-33.886;151.198;2022-07-29T01:18:30;2.47;;;0.95;;
25990;SDS011;13779;-33.886;151.198;2022-07-29T01:21:27;3.45;;;0.90;;
25990;SDS011;13779;-33.886;151.198;2022-07-29T01:29:58;4.38;;;1.50;;
25990;SDS011;13779;-33.886;151.198;2022-07-29T01:32:35;2.45;;;1.50;;
25990;SDS011;13779;-33.886;151.198;2022-07-29T01:35:17;3.00;;;1.30;;
25990;SDS011;13779;-33.886;151.198;2022-07-29T01:38:01;2.47;;;1.25;;
25990;SDS011;13779;-33.886;151.198;2022-07-29T01:43:10;5.90;;;3.70;;
25990;SDS011;13779;-33.886;151.198;2022-07-29T01:46:19;2.20;;;1.25;;
25990;SDS011;13779;-33.886;151.198;2022-07-29T01:48:52;2.55;;;1.00;;
25990;SDS011;13779;-33.886;151.198;2022-07-29T01:51:31;7.43;;;1.52;;
25990;SDS011;13779;-33.886;151.198;2022-07-29T01:54:29;3.75;;;1.10;;
25990;SDS011;13779;-33.886;151.198;2022-07-29T01:57:00;4.18;;;1.45;;
25990;SDS011;13779;-33.886;151.198;2022-07-29T01:59:33;2.78;;;1.40;;
25990;SDS011;13779;-33.886;151.198;2022-07-29T02:02:06;4.20;;;1.38;;
25990;SDS011;13779;-33.886;151.198;2022-07-29T02:04:38;2.70;;;1.23;;
25990;SDS011;13779;-33.886;151.198;2022-07-29T02:07:12;5.05;;;1.67;;
25990;SDS011;13779;-33.886;151.198;2022-07-29T02:09:45;4.28;;;1.10;;
25990;SDS011;13779;-33.886;151.198;2022-07-29T02:12:18;2.17;;;0.90;;
25990;SDS011;13779;-33.886;151.198;2022-07-29T02:14:51;3.50;;;1.27;;
25990;SDS011;13779;-33.886;151.198;2022-07-29T02:17:25;3.50;;;1.48;;
25990;SDS011;13779;-33.886;151.198;2022-07-29T02:20:10;4.28;;;1.40;;
25990;SDS011;13779;-33.886;151.198;2022-07-29T02:22:41;3.13;;;1.35;;
25990;SDS011;13779;-33.886;151.198;2022-07-29T02:25:14;3.60;;;1.20;;
25990;SDS011;13779;-33.886;151.198;2022-07-29T02:27:46;4.45;;;1.20;;
25990;SDS011;13779;-33.886;151.198;2022-07-29T02:30:19;3.22;;;1.00;;
25990;SDS011;13779;-33.886;151.198;2022-07-29T02:32:52;6.65;;;1.35;;
25990;SDS011;13779;-33.886;151.198;2022-07-29T02:35:24;4.97;;;1.65;;
25990;SDS011;13779;-33.886;151.198;2022-07-29T02:38:00;2.47;;;1.25;;
25990;SDS011;13779;-33.886;151.198;2022-07-29T02:40:50;4.15;;;1.10;;
25990;SDS011;13779;-33.886;151.198;2022-07-29T02:43:22;3.60;;;0.95;;
25990;SDS011;13779;-33.886;151.198;2022-07-29T02:48:27;3.67;;;1.00;;
25990;SDS011;13779;-33.886;151.198;2022-07-29T02:51:17;3.78;;;1.10;;
25990;SDS011;13779;-33.886;151.198;2022-07-29T02:54:07;2.17;;;1.35;;
25990;SDS011;13779;-33.886;151.198;2022-07-29T02:56:40;2.53;;;1.17;;
25990;SDS011;13779;-33.886;151.198;2022-07-29T02:59:13;6.50;;;0.90;;
25990;SDS011;13779;-33.886;151.198;2022-07-29T03:01:47;6.88;;;1.33;;
25990;SDS011;13779;-33.886;151.198;2022-07-29T03:04:18;3.50;;;1.02;;
25990;SDS011;13779;-33.886;151.198;2022-07-29T03:06:50;3.95;;;0.77;;
25990;SDS011;13779;-33.886;151.198;2022-07-29T03:09:21;5.60;;;1.27;;
25990;SDS011;13779;-33.886;151.198;2022-07-29T03:11:54;3.42;;;1.23;;
25990;SDS011;13779;-33.886;151.198;2022-07-29T03:14:27;5.25;;;0.90;;
25990;SDS011;13779;-33.886;151.198;2022-07-29T03:16:58;2.20;;;0.90;;
25990;SDS011;13779;-33.886;151.198;2022-07-29T03:19:29;1.92;;;0.90;;
25990;SDS011;13779;-33.886;151.198;2022-07-29T03:22:01;4.07;;;1.20;;
25990;SDS011;13779;-33.886;151.198;2022-07-29T03:24:33;3.30;;;1.13;;
25990;SDS011;13779;-33.886;151.198;2022-07-29T03:27:05;3.85;;;1.05;;
25990;SDS011;13779;-33.886;151.198;2022-07-29T03:29:35;4.15;;;1.02;;
25990;SDS011;13779;-33.886;151.198;2022-07-29T03:32:06;4.50;;;1.33;;
25990;SDS011;13779;-33.886;151.198;2022-07-29T03:34:37;5.87;;;1.53;;
25990;SDS011;13779;-33.886;151.198;2022-07-29T03:37:08;6.53;;;1.40;;
25990;SDS011;13779;-33.886;151.198;2022-07-29T03:39:39;6.27;;;1.17;;
25990;SDS011;13779;-33.886;151.198;2022-07-29T03:42:13;3.33;;;1.20;;
25990;SDS011;13779;-33.886;151.198;2022-07-29T03:44:45;4.22;;;1.40;;
25990;SDS011;13779;-33.886;151.198;2022-07-29T03:47:20;2.50;;;1.15;;
25990;SDS011;13779;-33.886;151.198;2022-07-29T03:50:05;4.38;;;1.25;;
25990;SDS011;13779;-33.886;151.198;2022-07-29T03:52:37;3.05;;;1.27;;
25990;SDS011;13779;-33.886;151.198;2022-07-29T03:55:08;3.85;;;1.70;;
25990;SDS011;13779;-33.886;151.198;2022-07-29T03:57:39;5.65;;;1.02;;
25990;SDS011;13779;-33.886;151.198;2022-07-29T04:02:41;4.65;;;1.00;;
25990;SDS011;13779;-33.886;151.198;2022-07-29T04:05:16;2.72;;;1.08;;
25990;SDS011;13779;-33.886;151.198;2022-07-29T04:07:48;3.28;;;0.90;;
25990;SDS011;13779;-33.886;151.198;2022-07-29T04:10:18;6.43;;;1.00;;
25990;SDS011;13779;-33.886;151.198;2022-07-29T04:12:51;4.95;;;1.15;;
25990;SDS011;13779;-33.886;151.198;2022-07-29T04:15:21;4.45;;;0.82;;
25990;SDS011;13779;-33.886;151.198;2022-07-29T04:17:52;5.23;;;1.10;;
25990;SDS011;13779;-33.886;151.198;2022-07-29T04:20:22;2.53;;;1.17;;
25990;SDS011;13779;-33.886;151.198;2022-07-29T04:22:53;3.35;;;1.15;;
25990;SDS011;13779;-33.886;151.198;2022-07-29T04:25:23;3.33;;;1.20;;
25990;SDS011;13779;-33.886;151.198;2022-07-29T04:27:54;4.53;;;0.98;;
25990;SDS011;13779;-33.886;151.198;2022-07-29T04:30:30;2.58;;;1.08;;
25990;SDS011;13779;-33.886;151.198;2022-07-29T04:35:38;6.65;;;1.40;;
25990;SDS011;13779;-33.886;151.198;2022-07-29T04:38:16;7.32;;;1.52;;
25990;SDS011;13779;-33.886;151.198;2022-07-29T04:40:46;6.37;;;2.30;;
25990;SDS011;13779;-33.886;151.198;2022-07-29T04:43:17;7.68;;;1.98;;
25990;SDS011;13779;-33.886;151.198;2022-07-29T04:45:48;4.63;;;1.40;;
25990;SDS011;13779;-33.886;151.198;2022-07-29T04:48:19;4.20;;;1.80;;
25990;SDS011;13779;-33.886;151.198;2022-07-29T04:50:54;4.32;;;0.88;;
25990;SDS011;13779;-33.886;151.198;2022-07-29T04:53:25;6.72;;;1.27;;
25990;SDS011;13779;-33.886;151.198;2022-07-29T04:55:55;3.43;;;1.70;;
25990;SDS011;13779;-33.886;151.198;2022-07-29T04:58:25;2.75;;;1.20;;
25990;SDS011;13779;-33.886;151.198;2022-07-29T05:00:56;4.15;;;1.00;;
25990;SDS011;13779;-33.886;151.198;2022-07-29T05:03:26;4.53;;;1.13;;
25990;SDS011;13779;-33.886;151.198;2022-07-29T05:05:56;2.83;;;1.00;;
25990;SDS011;13779;-33.886;151.198;2022-07-29T05:08:26;3.78;;;1.30;;
25990;SDS011;13779;-33.886;151.198;2022-07-29T05:10:56;4.32;;;1.10;;
25990;SDS011;13779;-33.886;151.198;2022-07-29T05:13:26;5.07;;;1.10;;
25990;SDS011;13779;-33.886;151.198;2022-07-29T05:16:11;3.22;;;1.20;;
25990;SDS011;13779;-33.886;151.198;2022-07-29T05:18:42;2.83;;;0.98;;
25990;SDS011;13779;-33.886;151.198;2022-07-29T05:21:12;3.58;;;1.33;;
25990;SDS011;13779;-33.886;151.198;2022-07-29T05:23:42;5.35;;;1.27;;
25990;SDS011;13779;-33.886;151.198;2022-07-29T05:26:12;4.32;;;1.42;;
25990;SDS011;13779;-33.886;151.198;2022-07-29T05:28:42;2.25;;;0.98;;
25990;SDS011;13779;-33.886;151.198;2022-07-29T05:31:12;4.57;;;1.20;;
25990;SDS011;13779;-33.886;151.198;2022-07-29T05:33:43;5.22;;;1.05;;
25990;SDS011;13779;-33.886;151.198;2022-07-29T05:36:13;5.15;;;1.02;;
25990;SDS011;13779;-33.886;151.198;2022-07-29T05:38:43;5.45;;;1.10;;
25990;SDS011;13779;-33.886;151.198;2022-07-29T05:41:13;4.72;;;0.90;;
25990;SDS011;13779;-33.886;151.198;2022-07-29T05:43:43;7.07;;;1.05;;
25990;SDS011;13779;-33.886;151.198;2022-07-29T05:46:13;6.28;;;2.38;;
25990;SDS011;13779;-33.886;151.198;2022-07-29T05:48:44;3.97;;;1.45;;
25990;SDS011;13779;-33.886;151.198;2022-07-29T05:51:14;5.57;;;2.30;;
25990;SDS011;13779;-33.886;151.198;2022-07-29T05:53:44;5.22;;;1.10;;
25990;SDS011;13779;-33.886;151.198;2022-07-29T05:56:15;4.38;;;1.23;;
25990;SDS011;13779;-33.886;151.198;2022-07-29T05:58:45;3.25;;;1.30;;
25990;SDS011;13779;-33.886;151.198;2022-07-29T06:01:16;4.25;;;1.20;;
25990;SDS011;13779;-33.886;151.198;2022-07-29T06:03:46;8.68;;;1.45;;
25990;SDS011;13779;-33.886;151.198;2022-07-29T06:06:17;3.93;;;1.60;;
25990;SDS011;13779;-33.886;151.198;2022-07-29T06:08:48;1.98;;;1.10;;
25990;SDS011;13779;-33.886;151.198;2022-07-29T06:11:18;10.10;;;1.50;;
25990;SDS011;13779;-33.886;151.198;2022-07-29T06:13:49;5.22;;;1.60;;
25990;SDS011;13779;-33.886;151.198;2022-07-29T06:16:19;5.00;;;1.50;;
25990;SDS011;13779;-33.886;151.198;2022-07-29T06:18:55;6.05;;;1.05;;
25990;SDS011;13779;-33.886;151.198;2022-07-29T06:21:26;4.97;;;0.85;;
25990;SDS011;13779;-33.886;151.198;2022-07-29T06:23:57;3.37;;;1.33;;
25990;SDS011;13779;-33.886;151.198;2022-07-29T06:26:27;3.63;;;1.30;;
25990;SDS011;13779;-33.886;151.198;2022-07-29T06:29:01;6.03;;;1.50;;
25990;SDS011;13779;-33.886;151.198;2022-07-29T06:31:31;5.45;;;1.20;;
25990;SDS011;13779;-33.886;151.198;2022-07-29T06:34:02;6.18;;;1.42;;
25990;SDS011;13779;-33.886;151.198;2022-07-29T06:36:36;6.15;;;1.83;;
25990;SDS011;13779;-33.886;151.198;2022-07-29T06:39:07;8.27;;;1.50;;
25990;SDS011;13779;-33.886;151.198;2022-07-29T06:41:38;5.45;;;1.50;;
25990;SDS011;13779;-33.886;151.198;2022-07-29T06:44:08;10.93;;;3.15;;
25990;SDS011;13779;-33.886;151.198;2022-07-29T06:46:39;4.55;;;1.40;;
25990;SDS011;13779;-33.886;151.198;2022-07-29T06:49:10;8.43;;;2.08;;
25990;SDS011;13779;-33.886;151.198;2022-07-29T06:51:42;5.38;;;1.42;;
25990;SDS011;13779;-33.886;151.198;2022-07-29T06:56:43;8.90;;;2.30;;
25990;SDS011;13779;-33.886;151.198;2022-07-29T06:59:14;11.35;;;1.95;;
25990;SDS011;13779;-33.886;151.198;2022-07-29T07:01:44;6.28;;;2.47;;
25990;SDS011;13779;-33.886;151.198;2022-07-29T07:04:14;5.97;;;1.80;;
25990;SDS011;13779;-33.886;151.198;2022-07-29T07:06:44;3.58;;;1.67;;
25990;SDS011;13779;-33.886;151.198;2022-07-29T07:09:14;6.28;;;1.33;;
25990;SDS011;13779;-33.886;151.198;2022-07-29T07:11:44;5.78;;;1.55;;
25990;SDS011;13779;-33.886;151.198;2022-07-29T07:14:15;5.70;;;1.73;;
25990;SDS011;13779;-33.886;151.198;2022-07-29T07:16:45;5.63;;;1.55;;
25990;SDS011;13779;-33.886;151.198;2022-07-29T07:19:15;3.35;;;1.52;;
25990;SDS011;13779;-33.886;151.198;2022-07-29T07:21:47;4.35;;;1.70;;
25990;SDS011;13779;-33.886;151.198;2022-07-29T07:24:17;5.32;;;2.03;;
25990;SDS011;13779;-33.886;151.198;2022-07-29T07:26:47;5.55;;;1.75;;
25990;SDS011;13779;-33.886;151.198;2022-07-29T07:29:18;6.68;;;2.33;;
25990;SDS011;13779;-33.886;151.198;2022-07-29T07:31:48;7.85;;;1.60;;
25990;SDS011;13779;-33.886;151.198;2022-07-29T07:34:20;4.55;;;1.63;;
25990;SDS011;13779;-33.886;151.198;2022-07-29T07:36:51;4.60;;;1.60;;
25990;SDS011;13779;-33.886;151.198;2022-07-29T07:39:21;4.50;;;1.60;;
25990;SDS011;13779;-33.886;151.198;2022-07-29T07:41:52;8.43;;;2.10;;
25990;SDS011;13779;-33.886;151.198;2022-07-29T07:44:22;6.28;;;1.85;;
25990;SDS011;13779;-33.886;151.198;2022-07-29T07:46:52;5.68;;;2.00;;
25990;SDS011;13779;-33.886;151.198;2022-07-29T07:49:22;4.60;;;1.75;;
25990;SDS011;13779;-33.886;151.198;2022-07-29T07:51:52;4.80;;;1.70;;
25990;SDS011;13779;-33.886;151.198;2022-07-29T07:54:22;7.45;;;2.10;;
25990;SDS011;13779;-33.886;151.198;2022-07-29T07:56:52;7.90;;;2.08;;
25990;SDS011;13779;-33.886;151.198;2022-07-29T07:59:22;6.93;;;3.25;;
25990;SDS011;13779;-33.886;151.198;2022-07-29T08:01:53;6.95;;;1.92;;
25990;SDS011;13779;-33.886;151.198;2022-07-29T08:04:23;6.95;;;1.92;;
25990;SDS011;13779;-33.886;151.198;2022-07-29T08:09:25;4.03;;;1.95;;
25990;SDS011;13779;-33.886;151.198;2022-07-29T08:11:57;5.68;;;1.63;;
25990;SDS011;13779;-33.886;151.198;2022-07-29T08:14:27;8.25;;;1.95;;
25990;SDS011;13779;-33.886;151.198;2022-07-29T08:16:57;4.40;;;1.90;;
25990;SDS011;13779;-33.886;151.198;2022-07-29T08:19:28;5.88;;;2.00;;
25990;SDS011;13779;-33.886;151.198;2022-07-29T08:21:58;6.40;;;1.80;;
25990;SDS011;13779;-33.886;151.198;2022-07-29T08:25:07;8.57;;;2.05;;
25990;SDS011;13779;-33.886;151.198;2022-07-29T08:27:37;8.27;;;2.47;;
25990;SDS011;13779;-33.886;151.198;2022-07-29T08:30:09;45.70;;;21.90;;
25990;SDS011;13779;-33.886;151.198;2022-07-29T08:32:40;181.43;;;95.65;;
25990;SDS011;13779;-33.886;151.198;2022-07-29T08:35:20;114.55;;;62.45;;
25990;SDS011;13779;-33.886;151.198;2022-07-29T08:37:51;97.95;;;50.47;;
25990;SDS011;13779;-33.886;151.198;2022-07-29T08:40:22;66.43;;;31.60;;
25990;SDS011;13779;-33.886;151.198;2022-07-29T08:42:56;40.55;;;21.15;;
25990;SDS011;13779;-33.886;151.198;2022-07-29T08:45:26;17.90;;;10.57;;
25990;SDS011;13779;-33.886;151.198;2022-07-29T08:47:58;19.85;;;9.95;;
25990;SDS011;13779;-33.886;151.198;2022-07-29T08:50:29;11.32;;;5.47;;
25990;SDS011;13779;-33.886;151.198;2022-07-29T08:53:00;13.32;;;5.05;;
25990;SDS011;13779;-33.886;151.198;2022-07-29T08:55:33;8.45;;;3.22;;
25990;SDS011;13779;-33.886;151.198;2022-07-29T08:58:04;9.90;;;3.10;;
25990;SDS011;13779;-33.886;151.198;2022-07-29T09:00:41;10.93;;;4.72;;
25990;SDS011;13779;-33.886;151.198;2022-07-29T09:03:15;8.32;;;3.00;;
25990;SDS011;13779;-33.886;151.198;2022-07-29T09:05:48;4.30;;;2.97;;
25990;SDS011;13779;-33.886;151.198;2022-07-29T09:08:19;12.80;;;4.20;;
25990;SDS011;13779;-33.886;151.198;2022-07-29T09:10:50;7.00;;;2.27;;
25990;SDS011;13779;-33.886;151.198;2022-07-29T09:13:22;11.98;;;5.85;;
25990;SDS011;13779;-33.886;151.198;2022-07-29T09:15:53;15.38;;;5.47;;
25990;SDS011;13779;-33.886;151.198;2022-07-29T09:18:37;10.27;;;5.30;;
25990;SDS011;13779;-33.886;151.198;2022-07-29T09:21:09;14.68;;;6.80;;
25990;SDS011;13779;-33.886;151.198;2022-07-29T09:24:06;5.72;;;3.50;;
25990;SDS011;13779;-33.886;151.198;2022-07-29T09:26:42;10.07;;;3.22;;
25990;SDS011;13779;-33.886;151.198;2022-07-29T09:31:47;7.28;;;2.55;;
25990;SDS011;13779;-33.886;151.198;2022-07-29T09:34:25;10.55;;;4.57;;
25990;SDS011;13779;-33.886;151.198;2022-07-29T09:36:59;10.32;;;4.35;;
25990;SDS011;13779;-33.886;151.198;2022-07-29T09:39:34;8.63;;;4.97;;
25990;SDS011;13779;-33.886;151.198;2022-07-29T09:42:06;8.32;;;3.00;;
25990;SDS011;13779;-33.886;151.198;2022-07-29T09:44:46;8.52;;;3.70;;
25990;SDS011;13779;-33.886;151.198;2022-07-29T09:47:18;7.15;;;2.10;;
25990;SDS011;13779;-33.886;151.198;2022-07-29T09:52:27;10.35;;;1.98;;
25990;SDS011;13779;-33.886;151.198;2022-07-29T09:55:04;6.22;;;2.30;;
25990;SDS011;13779;-33.886;151.198;2022-07-29T09:57:36;9.57;;;2.42;;
25990;SDS011;13779;-33.886;151.198;2022-07-29T10:00:07;7.40;;;1.90;;
25990;SDS011;13779;-33.886;151.198;2022-07-29T10:02:46;6.15;;;2.30;;
25990;SDS011;13779;-33.886;151.198;2022-07-29T10:05:23;9.85;;;3.45;;
25990;SDS011;13779;-33.886;151.198;2022-07-29T10:08:02;7.82;;;2.55;;
25990;SDS011;13779;-33.886;151.198;2022-07-29T10:10:33;11.63;;;3.23;;
25990;SDS011;13779;-33.886;151.198;2022-07-29T10:13:09;10.27;;;3.55;;
25990;SDS011;13779;-33.886;151.198;2022-07-29T10:15:42;11.80;;;3.17;;
25990;SDS011;13779;-33.886;151.198;2022-07-29T10:18:14;10.43;;;3.28;;
25990;SDS011;13779;-33.886;151.198;2022-07-29T10:20:47;15.10;;;4.28;;
25990;SDS011;13779;-33.886;151.198;2022-07-29T10:23:18;15.27;;;4.88;;
25990;SDS011;13779;-33.886;151.198;2022-07-29T10:25:48;11.80;;;3.55;;
25990;SDS011;13779;-33.886;151.198;2022-07-29T10:28:19;11.48;;;4.45;;
25990;SDS011;13779;-33.886;151.198;2022-07-29T10:30:49;15.13;;;4.35;;
25990;SDS011;13779;-33.886;151.198;2022-07-29T10:33:40;15.02;;;5.03;;
25990;SDS011;13779;-33.886;151.198;2022-07-29T10:42:23;11.85;;;4.97;;
25990;SDS011;13779;-33.886;151.198;2022-07-29T10:45:00;11.00;;;4.68;;
25990;SDS011;13779;-33.886;151.198;2022-07-29T10:47:32;10.43;;;4.00;;
25990;SDS011;13779;-33.886;151.198;2022-07-29T10:50:03;11.18;;;4.10;;
25990;SDS011;13779;-33.886;151.198;2022-07-29T10:55:32;10.73;;;4.15;;
25990;SDS011;13779;-33.886;151.198;2022-07-29T10:58:20;11.65;;;4.13;;
25990;SDS011;13779;-33.886;151.198;2022-07-29T11:00:55;11.43;;;4.90;;
25990;SDS011;13779;-33.886;151.198;2022-07-29T11:06:23;14.82;;;4.95;;
25990;SDS011;13779;-33.886;151.198;2022-07-29T11:12:01;18.42;;;7.55;;
25990;SDS011;13779;-33.886;151.198;2022-07-29T11:17:28;30.67;;;14.70;;
25990;SDS011;13779;-33.886;151.198;2022-07-29T11:28:52;11.05;;;6.25;;
25990;SDS011;13779;-33.886;151.198;2022-07-29T11:31:49;18.10;;;5.43;;
25990;SDS011;13779;-33.886;151.198;2022-07-29T11:34:30;17.80;;;6.35;;
25990;SDS011;13779;-33.886;151.198;2022-07-29T11:39:39;15.52;;;6.25;;
25990;SDS011;13779;-33.886;151.198;2022-07-29T11:44:54;12.40;;;5.63;;
25990;SDS011;13779;-33.886;151.198;2022-07-29T11:47:30;15.02;;;5.40;;
25990;SDS011;13779;-33.886;151.198;2022-07-29T11:50:05;14.40;;;5.40;;
25990;SDS011;13779;-33.886;151.198;2022-07-29T11:52:45;15.93;;;5.38;;
25990;SDS011;13779;-33.886;151.198;2022-07-29T11:55:17;10.48;;;5.95;;
25990;SDS011;13779;-33.886;151.198;2022-07-29T11:57:59;12.25;;;7.05;;
25990;SDS011;13779;-33.886;151.198;2022-07-29T12:00:34;13.07;;;5.90;;
25990;SDS011;13779;-33.886;151.198;2022-07-29T12:03:23;13.82;;;4.82;;
25990;SDS011;13779;-33.886;151.198;2022-07-29T12:05:59;15.27;;;6.68;;
25990;SDS011;13779;-33.886;151.198;2022-07-29T12:08:30;9.35;;;4.18;;
25990;SDS011;13779;-33.886;151.198;2022-07-29T12:11:18;17.00;;;6.70;;
25990;SDS011;13779;-33.886;151.198;2022-07-29T12:13:50;12.60;;;5.93;;
25990;SDS011;13779;-33.886;151.198;2022-07-29T12:16:21;15.10;;;4.35;;
25990;SDS011;13779;-33.886;151.198;2022-07-29T12:18:57;15.52;;;5.32;;
25990;SDS011;13779;-33.886;151.198;2022-07-29T12:21:42;13.10;;;5.32;;
25990;SDS011;13779;-33.886;151.198;2022-07-29T12:24:17;14.40;;;6.53;;
25990;SDS011;13779;-33.886;151.198;2022-07-29T12:26:52;13.48;;;7.05;;
25990;SDS011;13779;-33.886;151.198;2022-07-29T12:29:27;14.32;;;5.82;;
25990;SDS011;13779;-33.886;151.198;2022-07-29T12:32:00;9.43;;;4.63;;
25990;SDS011;13779;-33.886;151.198;2022-07-29T12:34:31;11.60;;;4.43;;
25990;SDS011;13779;-33.886;151.198;2022-07-29T12:37:02;8.50;;;2.92;;
25990;SDS011;13779;-33.886;151.198;2022-07-29T12:42:12;9.23;;;1.90;;
25990;SDS011;13779;-33.886;151.198;2022-07-29T12:44:45;4.47;;;2.08;;
25990;SDS011;13779;-33.886;151.198;2022-07-29T12:47:17;3.70;;;1.20;;
25990;SDS011;13779;-33.886;151.198;2022-07-29T12:49:49;11.07;;;2.20;;
25990;SDS011;13779;-33.886;151.198;2022-07-29T12:52:36;7.30;;;2.03;;
25990;SDS011;13779;-33.886;151.198;2022-07-29T12:57:47;9.70;;;1.90;;
25990;SDS011;13779;-33.886;151.198;2022-07-29T13:00:23;5.13;;;1.30;;
25990;SDS011;13779;-33.886;151.198;2022-07-29T13:02:57;10.35;;;1.48;;
25990;SDS011;13779;-33.886;151.198;2022-07-29T13:05:39;5.30;;;1.70;;
25990;SDS011;13779;-33.886;151.198;2022-07-29T13:08:15;9.38;;;2.13;;
25990;SDS011;13779;-33.886;151.198;2022-07-29T13:10:50;10.88;;;2.50;;
25990;SDS011;13779;-33.886;151.198;2022-07-29T13:13:20;5.57;;;1.77;;
25990;SDS011;13779;-33.886;151.198;2022-07-29T13:16:05;6.72;;;2.03;;
25990;SDS011;13779;-33.886;151.198;2022-07-29T13:18:36;6.30;;;1.77;;
25990;SDS011;13779;-33.886;151.198;2022-07-29T13:21:11;4.90;;;1.27;;
25990;SDS011;13779;-33.886;151.198;2022-07-29T13:23:44;6.03;;;1.27;;
25990;SDS011;13779;-33.886;151.198;2022-07-29T13:26:15;6.80;;;2.90;;
25990;SDS011;13779;-33.886;151.198;2022-07-29T13:28:48;9.38;;;3.72;;
25990;SDS011;13779;-33.886;151.198;2022-07-29T13:31:19;10.70;;;4.35;;
25990;SDS011;13779;-33.886;151.198;2022-07-29T13:33:50;8.82;;;4.50;;
25990;SDS011;13779;-33.886;151.198;2022-07-29T13:36:21;11.52;;;5.60;;
25990;SDS011;13779;-33.886;151.198;2022-07-29T13:38:51;12.43;;;6.20;;
25990;SDS011;13779;-33.886;151.198;2022-07-29T13:41:22;11.97;;;4.80;;
25990;SDS011;13779;-33.886;151.198;2022-07-29T13:43:52;12.30;;;4.20;;
25990;SDS011;13779;-33.886;151.198;2022-07-29T13:46:23;12.05;;;4.38;;
25990;SDS011;13779;-33.886;151.198;2022-07-29T13:48:54;12.20;;;3.92;;
25990;SDS011;13779;-33.886;151.198;2022-07-29T13:51:25;9.50;;;3.88;;
25990;SDS011;13779;-33.886;151.198;2022-07-29T13:56:26;11.57;;;4.65;;
25990;SDS011;13779;-33.886;151.198;2022-07-29T13:58:57;12.30;;;5.07;;
25990;SDS011;13779;-33.886;151.198;2022-07-29T14:01:27;9.32;;;4.50;;
25990;SDS011;13779;-33.886;151.198;2022-07-29T14:03:59;8.13;;;4.05;;
25990;SDS011;13779;-33.886;151.198;2022-07-29T14:06:29;9.63;;;4.38;;
25990;SDS011;13779;-33.886;151.198;2022-07-29T14:09:00;11.65;;;4.28;;
25990;SDS011;13779;-33.886;151.198;2022-07-29T14:11:31;9.95;;;3.70;;
25990;SDS011;13779;-33.886;151.198;2022-07-29T14:14:02;11.55;;;5.30;;
25990;SDS011;13779;-33.886;151.198;2022-07-29T14:16:33;9.75;;;3.90;;
25990;SDS011;13779;-33.886;151.198;2022-07-29T14:19:09;12.48;;;4.32;;
25990;SDS011;13779;-33.886;151.198;2022-07-29T14:21:39;13.00;;;5.82;;
25990;SDS011;13779;-33.886;151.198;2022-07-29T14:24:10;15.32;;;5.45;;
25990;SDS011;13779;-33.886;151.198;2022-07-29T14:26:43;9.82;;;4.22;;
25990;SDS011;13779;-33.886;151.198;2022-07-29T14:29:14;14.65;;;6.60;;
25990;SDS011;13779;-33.886;151.198;2022-07-29T14:31:45;15.77;;;5.03;;
25990;SDS011;13779;-33.886;151.198;2022-07-29T14:34:15;11.95;;;5.00;;
25990;SDS011;13779;-33.886;151.198;2022-07-29T14:36:46;13.48;;;3.92;;
25990;SDS011;13779;-33.886;151.198;2022-07-29T14:39:16;12.07;;;4.47;;
25990;SDS011;13779;-33.886;151.198;2022-07-29T14:41:47;11.00;;;4.03;;
25990;SDS011;13779;-33.886;151.198;2022-07-29T14:44:18;7.70;;;3.60;;
25990;SDS011;13779;-33.886;151.198;2022-07-29T14:46:48;14.07;;;4.95;;
25990;SDS011;13779;-33.886;151.198;2022-07-29T14:49:19;7.27;;;3.73;;
25990;SDS011;13779;-33.886;151.198;2022-07-29T14:51:49;10.73;;;4.03;;
25990;SDS011;13779;-33.886;151.198;2022-07-29T14:54:20;11.35;;;4.60;;
25990;SDS011;13779;-33.886;151.198;2022-07-29T14:56:51;13.10;;;4.57;;
25990;SDS011;13779;-33.886;151.198;2022-07-29T14:59:25;11.15;;;4.07;;
25990;SDS011;13779;-33.886;151.198;2022-07-29T15:01:56;12.68;;;4.43;;
25990;SDS011;13779;-33.886;151.198;2022-07-29T15:04:27;12.68;;;3.78;;
25990;SDS011;13779;-33.886;151.198;2022-07-29T15:06:57;9.90;;;4.70;;
25990;SDS011;13779;-33.886;151.198;2022-07-29T15:09:28;8.50;;;4.28;;
25990;SDS011;13779;-33.886;151.198;2022-07-29T15:11:59;9.93;;;4.57;;
25990;SDS011;13779;-33.886;151.198;2022-07-29T15:14:31;10.18;;;5.45;;
25990;SDS011;13779;-33.886;151.198;2022-07-29T15:17:02;12.83;;;6.10;;
25990;SDS011;13779;-33.886;151.198;2022-07-29T15:19:32;12.98;;;4.63;;
25990;SDS011;13779;-33.886;151.198;2022-07-29T15:22:03;11.75;;;4.55;;
25990;SDS011;13779;-33.886;151.198;2022-07-29T15:24:35;7.40;;;3.70;;
25990;SDS011;13779;-33.886;151.198;2022-07-29T15:27:06;13.55;;;5.30;;
25990;SDS011;13779;-33.886;151.198;2022-07-29T15:29:44;12.68;;;5.45;;
25990;SDS011;13779;-33.886;151.198;2022-07-29T15:32:14;11.20;;;4.47;;
25990;SDS011;13779;-33.886;151.198;2022-07-29T15:34:45;8.98;;;3.90;;
25990;SDS011;13779;-33.886;151.198;2022-07-29T15:37:15;7.97;;;4.67;;
25990;SDS011;13779;-33.886;151.198;2022-07-29T15:39:46;11.45;;;4.18;;
25990;SDS011;13779;-33.886;151.198;2022-07-29T15:42:18;6.50;;;3.63;;
25990;SDS011;13779;-33.886;151.198;2022-07-29T15:44:49;5.85;;;3.50;;
25990;SDS011;13779;-33.886;151.198;2022-07-29T15:47:20;10.43;;;3.50;;